createdAt,value
2023-02-23T00:00:28.359Z,26.50
2023-02-23T00:03:00.991Z,25.77
2023-02-23T00:05:28.984Z,24.27
2023-02-23T00:07:55.503Z,23.77
2023-02-23T00:10:25.228Z,24.73
2023-02-23T00:12:51.781Z,23.87
2023-02-23T00:15:18.116Z,23.63
2023-02-23T00:17:44.447Z,23.53
2023-02-23T00:20:12.003Z,26.07
2023-02-23T00:22:40.158Z,23.77
2023-02-23T00:25:11.678Z,25.20
2023-02-23T00:27:45.914Z,26.30
2023-02-23T00:30:12.828Z,23.53
2023-02-23T00:32:39.227Z,25.33
2023-02-23T00:35:11.461Z,26.17
2023-02-23T00:37:37.924Z,26.77
2023-02-23T00:40:13.032Z,25.43
2023-02-23T00:42:40.175Z,24.53
2023-02-23T00:45:11.211Z,26.03
2023-02-23T00:47:38.268Z,24.20
2023-02-23T00:50:05.190Z,26.97
2023-02-23T00:52:31.708Z,25.80
2023-02-23T00:54:58.019Z,25.10
2023-02-23T00:57:24.292Z,25.60
2023-02-23T00:59:51.610Z,24.30
2023-02-23T01:02:17.987Z,27.17
2023-02-23T01:04:44.356Z,24.33
2023-02-23T01:07:12.958Z,26.77
2023-02-23T01:09:39.303Z,26.67
2023-02-23T01:12:07.448Z,27.37
2023-02-23T01:14:34.558Z,23.63
2023-02-23T01:17:01.053Z,25.23
2023-02-23T01:19:28.510Z,25.30
2023-02-23T01:21:55.068Z,25.37
2023-02-23T01:24:21.401Z,23.67
2023-02-23T01:26:47.883Z,27.43
2023-02-23T01:29:15.570Z,26.20
2023-02-23T01:31:44.442Z,23.13
2023-02-23T01:34:11.951Z,24.43
2023-02-23T01:36:39.514Z,24.93
2023-02-23T01:39:07.773Z,24.67
2023-02-23T01:41:35.347Z,26.47
2023-02-23T01:44:27.398Z,22.83
2023-02-23T01:46:53.697Z,22.80
2023-02-23T01:49:22.038Z,24.93
2023-02-23T01:51:57.298Z,23.53
2023-02-23T01:54:25.714Z,25.30
2023-02-23T01:56:58.153Z,24.90
2023-02-23T01:59:28.232Z,25.00
2023-02-23T02:01:55.697Z,24.13
2023-02-23T02:04:22.594Z,24.47
2023-02-23T02:06:53.620Z,25.23
2023-02-23T02:09:25.472Z,22.90
2023-02-23T02:11:54.229Z,22.20
2023-02-23T02:14:22.609Z,21.07
2023-02-23T02:16:52.757Z,23.87
2023-02-23T02:19:33.665Z,22.87
2023-02-23T02:22:18.613Z,23.43
2023-02-23T02:24:48.079Z,23.90
2023-02-23T02:27:23.926Z,23.17
2023-02-23T02:30:13.476Z,22.73
2023-02-23T02:32:55.447Z,21.60
2023-02-23T02:35:24.591Z,22.37
2023-02-23T02:37:56.834Z,21.90
2023-02-23T02:40:29.871Z,23.87
2023-02-23T02:42:57.321Z,24.57
2023-02-23T02:45:30.722Z,22.47
2023-02-23T02:48:14.237Z,21.00
2023-02-23T02:50:58.011Z,21.83
2023-02-23T02:53:30.857Z,22.10
2023-02-23T02:56:01.558Z,23.50
2023-02-23T02:58:29.252Z,21.67
2023-02-23T03:01:14.380Z,23.43
2023-02-23T03:04:04.419Z,22.07
2023-02-23T03:06:54.192Z,22.23
2023-02-23T03:09:45.078Z,23.63
2023-02-23T03:12:44.805Z,21.03
2023-02-23T03:15:29.630Z,25.13
2023-02-23T03:18:20.048Z,24.33
2023-02-23T03:21:08.428Z,23.00
2023-02-23T03:23:59.606Z,23.50
2023-02-23T03:26:49.890Z,23.47
2023-02-23T03:29:34.738Z,23.87
2023-02-23T03:32:22.754Z,23.53
2023-02-23T03:35:26.526Z,24.03
2023-02-23T03:38:15.619Z,22.43
2023-02-23T03:41:02.560Z,22.80
2023-02-23T03:43:55.382Z,24.03
2023-02-23T03:46:40.691Z,24.10
2023-02-23T03:49:27.112Z,21.03
2023-02-23T03:52:13.962Z,22.90
2023-02-23T03:55:00.290Z,23.27
2023-02-23T03:57:46.711Z,23.63
2023-02-23T04:00:35.069Z,21.87
2023-02-23T04:03:22.485Z,22.80
2023-02-23T04:06:09.330Z,22.30
2023-02-23T04:08:56.698Z,20.70
2023-02-23T04:11:44.636Z,24.10
2023-02-23T04:14:15.878Z,22.40
2023-02-23T04:16:42.630Z,23.47
2023-02-23T04:19:09.108Z,23.93
2023-02-23T04:21:36.502Z,22.23
2023-02-23T04:24:02.768Z,21.37
2023-02-23T04:26:29.176Z,21.37
2023-02-23T04:28:55.437Z,22.13
2023-02-23T04:31:25.229Z,22.03
2023-02-23T04:33:51.882Z,19.50
2023-02-23T04:36:18.161Z,20.67
2023-02-23T04:38:44.584Z,20.80
2023-02-23T04:41:10.974Z,19.87
2023-02-23T04:43:37.368Z,21.57
2023-02-23T04:46:03.728Z,20.90
2023-02-23T04:48:30.033Z,21.37
2023-02-23T04:50:56.480Z,21.13
2023-02-23T04:53:22.787Z,21.17
2023-02-23T04:55:49.130Z,19.83
2023-02-23T04:58:15.773Z,19.20
2023-02-23T05:00:42.236Z,19.70
2023-02-23T05:03:08.733Z,21.10
2023-02-23T05:05:35.158Z,18.53
2023-02-23T05:08:01.545Z,18.83
2023-02-23T05:10:28.980Z,20.13
2023-02-23T05:12:55.492Z,20.50
2023-02-23T05:15:22.450Z,19.27
2023-02-23T05:17:48.957Z,19.27
2023-02-23T05:20:15.267Z,19.60
2023-02-23T05:22:41.788Z,18.93
2023-02-23T05:25:09.062Z,19.37
2023-02-23T05:27:35.689Z,17.37
2023-02-23T05:30:03.479Z,18.40
2023-02-23T05:32:29.937Z,17.63
2023-02-23T05:34:56.494Z,17.60
2023-02-23T05:37:23.059Z,18.43
2023-02-23T05:39:49.389Z,18.47
2023-02-23T05:42:15.689Z,19.83
2023-02-23T05:44:41.975Z,18.37
2023-02-23T05:47:08.284Z,19.30
2023-02-23T05:49:34.671Z,21.07
2023-02-23T05:52:00.962Z,21.30
2023-02-23T05:54:27.436Z,21.93
2023-02-23T05:56:53.802Z,21.60
2023-02-23T05:59:20.130Z,20.07
2023-02-23T06:01:46.425Z,21.07
2023-02-23T06:04:14.102Z,20.70
2023-02-23T06:06:40.431Z,20.77
2023-02-23T06:09:06.810Z,19.90
2023-02-23T06:11:33.124Z,20.17
2023-02-23T06:14:00.680Z,21.13
2023-02-23T06:16:27.345Z,20.67
2023-02-23T06:18:53.723Z,21.00
2023-02-23T06:21:20.767Z,21.50
2023-02-23T06:23:47.197Z,19.20
2023-02-23T06:26:13.531Z,20.47
2023-02-23T06:28:39.829Z,20.87
2023-02-23T06:31:06.884Z,22.37
2023-02-23T06:33:33.658Z,19.20
2023-02-23T06:35:59.969Z,19.63
2023-02-23T06:38:26.417Z,20.90
2023-02-23T06:40:52.724Z,18.20
2023-02-23T06:43:19.201Z,19.93
2023-02-23T06:45:46.585Z,18.37
2023-02-23T06:48:12.925Z,20.27
2023-02-23T06:50:39.227Z,18.07
2023-02-23T06:53:05.929Z,18.07
2023-02-23T06:55:32.626Z,17.97
2023-02-23T06:57:58.962Z,17.27
2023-02-23T07:00:25.288Z,16.03
2023-02-23T07:02:51.589Z,17.70
2023-02-23T07:05:18.994Z,16.13
2023-02-23T07:07:45.580Z,14.73
2023-02-23T07:10:12.320Z,14.87
2023-02-23T07:12:38.759Z,15.13
2023-02-23T07:15:05.486Z,15.80
2023-02-23T07:17:31.781Z,16.13
2023-02-23T07:19:58.422Z,13.83
2023-02-23T07:22:27.412Z,15.10
2023-02-23T07:24:53.799Z,14.33
2023-02-23T07:27:20.293Z,13.33
2023-02-23T07:29:46.607Z,13.33
2023-02-23T07:32:13.030Z,13.77
2023-02-23T07:34:39.856Z,13.30
2023-02-23T07:37:06.193Z,13.07
2023-02-23T07:39:32.504Z,12.07
2023-02-23T07:41:58.924Z,11.33
2023-02-23T07:44:25.214Z,12.07
2023-02-23T07:46:52.829Z,11.37
2023-02-23T07:49:19.155Z,10.33
2023-02-23T07:51:45.539Z,11.07
2023-02-23T07:54:11.874Z,9.90
2023-02-23T07:56:38.265Z,9.03
2023-02-23T07:59:04.658Z,8.60
2023-02-23T08:01:31.062Z,9.00
2023-02-23T08:03:57.415Z,8.73
2023-02-23T08:06:23.873Z,9.00
2023-02-23T08:08:50.244Z,8.40
2023-02-23T08:11:16.810Z,8.80
2023-02-23T08:13:43.438Z,8.80
2023-02-23T08:16:09.901Z,8.30
2023-02-23T08:18:36.356Z,9.37
2023-02-23T08:21:03.419Z,8.97
2023-02-23T08:23:30.550Z,9.50
2023-02-23T08:25:57.956Z,9.20
2023-02-23T08:28:25.184Z,9.90
2023-02-23T08:30:51.608Z,8.50
2023-02-23T08:33:18.101Z,9.73
2023-02-23T08:35:45.240Z,8.80
2023-02-23T08:38:11.605Z,8.20
2023-02-23T08:40:39.062Z,8.47
2023-02-23T08:43:05.381Z,9.10
2023-02-23T08:45:31.748Z,8.67
2023-02-23T08:47:58.168Z,9.30
2023-02-23T08:50:27.226Z,9.50
2023-02-23T08:52:54.265Z,9.07
2023-02-23T08:55:21.766Z,9.03
2023-02-23T08:57:48.159Z,8.67
2023-02-23T09:00:16.792Z,8.43
2023-02-23T09:02:43.689Z,8.63
2023-02-23T09:05:10.352Z,8.07
2023-02-23T09:07:37.656Z,8.67
2023-02-23T09:10:04.117Z,9.33
2023-02-23T09:12:30.401Z,8.70
2023-02-23T09:14:56.746Z,9.07
2023-02-23T09:17:23.176Z,7.83
2023-02-23T09:19:50.552Z,7.90
2023-02-23T09:22:18.380Z,8.73
2023-02-23T09:24:45.027Z,8.20
2023-02-23T09:27:12.925Z,8.03
2023-02-23T09:29:43.317Z,8.83
2023-02-23T09:32:10.655Z,9.13
2023-02-23T09:34:37.625Z,8.57
2023-02-23T09:37:04.849Z,8.47
2023-02-23T09:39:38.154Z,8.80
2023-02-23T09:42:08.121Z,8.50
2023-02-23T09:44:45.096Z,8.67
2023-02-23T09:47:32.571Z,7.87
2023-02-23T09:50:04.361Z,7.57
2023-02-23T09:52:40.299Z,8.53
2023-02-23T09:55:07.312Z,8.23
2023-02-23T09:57:37.373Z,8.10
2023-02-23T10:00:11.141Z,8.67
2023-02-23T10:02:49.451Z,9.03
2023-02-23T10:05:16.014Z,7.57
2023-02-23T10:07:48.748Z,8.83
2023-02-23T10:10:15.123Z,9.67
2023-02-23T10:12:50.754Z,9.50
2023-02-23T10:15:36.013Z,8.03
2023-02-23T10:18:45.206Z,8.17
2023-02-23T10:21:12.728Z,8.63
2023-02-23T10:23:49.286Z,8.97
2023-02-23T10:26:17.098Z,11.63
2023-02-23T10:28:44.924Z,8.77
2023-02-23T10:31:24.021Z,10.40
2023-02-23T10:33:51.120Z,8.37
2023-02-23T10:36:19.667Z,8.83
2023-02-23T10:38:46.682Z,12.93
2023-02-23T10:41:14.858Z,12.70
2023-02-23T10:43:41.431Z,12.50
2023-02-23T10:46:11.546Z,13.53
2023-02-23T10:48:43.340Z,14.17
2023-02-23T10:51:24.462Z,15.87
2023-02-23T10:53:52.870Z,17.43
2023-02-23T10:56:20.988Z,15.53
2023-02-23T10:58:48.254Z,13.67
2023-02-23T11:01:16.901Z,18.27
2023-02-23T11:03:57.563Z,16.83
2023-02-23T11:06:31.787Z,18.13
2023-02-23T11:08:59.257Z,18.00
2023-02-23T11:11:28.745Z,18.20
2023-02-23T11:13:56.653Z,16.37
2023-02-23T11:16:23.033Z,18.57
2023-02-23T11:18:55.671Z,16.17
2023-02-23T11:21:23.916Z,18.40
2023-02-23T11:23:52.476Z,18.40
2023-02-23T11:26:23.043Z,17.47
2023-02-23T11:28:52.435Z,18.33
2023-02-23T11:31:20.358Z,16.53
2023-02-23T11:33:47.751Z,17.87
2023-02-23T11:36:17.188Z,20.60
2023-02-23T11:38:45.669Z,17.60
2023-02-23T11:41:22.705Z,17.77
2023-02-23T11:43:56.568Z,17.83
2023-02-23T11:46:24.886Z,18.23
2023-02-23T11:49:01.540Z,18.23
2023-02-23T11:51:28.678Z,20.33
2023-02-23T11:53:55.292Z,20.10
2023-02-23T11:56:23.990Z,18.73
2023-02-23T11:58:53.766Z,19.87
2023-02-23T12:01:34.434Z,20.93
2023-02-23T12:04:00.895Z,18.63
2023-02-23T12:06:30.454Z,20.30
2023-02-23T12:09:02.800Z,17.70
2023-02-23T12:11:32.219Z,18.23
2023-02-23T12:13:58.533Z,18.83
2023-02-23T12:16:46.602Z,17.20
2023-02-23T12:19:31.405Z,17.00
2023-02-23T12:22:02.222Z,18.10
2023-02-23T12:24:43.932Z,18.53
2023-02-23T12:27:12.844Z,18.17
2023-02-23T12:29:44.102Z,18.40
2023-02-23T12:32:13.207Z,19.43
2023-02-23T12:34:43.598Z,18.53
2023-02-23T12:37:15.783Z,14.80
2023-02-23T12:39:45.018Z,14.10
2023-02-23T12:42:16.274Z,13.23
2023-02-23T12:44:51.461Z,13.93
2023-02-23T12:47:26.561Z,13.00
2023-02-23T12:50:16.158Z,13.70
2023-02-23T12:53:02.955Z,12.00
2023-02-23T12:55:49.667Z,11.00
2023-02-23T12:58:19.420Z,11.67
2023-02-23T13:00:51.819Z,12.20
2023-02-23T13:03:37.134Z,10.47
2023-02-23T13:06:15.794Z,10.00
2023-02-23T13:09:06.040Z,10.40
2023-02-23T13:11:47.613Z,9.23
2023-02-23T13:14:33.112Z,9.47
2023-02-23T13:17:16.103Z,9.77
2023-02-23T13:19:48.187Z,10.97
2023-02-23T13:22:20.670Z,11.10
2023-02-23T13:24:48.825Z,10.47
2023-02-23T13:27:18.538Z,11.50
2023-02-23T13:29:46.314Z,9.73
2023-02-23T13:32:14.821Z,11.67
2023-02-23T13:34:52.628Z,11.03
2023-02-23T13:37:21.116Z,9.00
2023-02-23T13:39:47.841Z,9.10
2023-02-23T13:42:30.992Z,7.63
2023-02-23T13:45:23.134Z,8.20
2023-02-23T13:47:52.372Z,7.57
2023-02-23T13:50:18.693Z,6.90
2023-02-23T13:52:46.387Z,5.43
2023-02-23T13:55:32.658Z,4.20
2023-02-23T13:58:25.770Z,4.17
2023-02-23T14:01:04.645Z,3.97
2023-02-23T14:03:34.003Z,3.10
2023-02-23T14:06:01.020Z,3.07
2023-02-23T14:08:50.187Z,2.63
2023-02-23T14:11:29.942Z,1.80
2023-02-23T14:14:01.099Z,1.83
2023-02-23T14:16:27.587Z,1.80
2023-02-23T14:18:57.933Z,1.97
2023-02-23T14:21:27.442Z,1.90
2023-02-23T14:24:26.357Z,1.83
2023-02-23T14:27:07.254Z,2.23
2023-02-23T14:29:40.789Z,2.30
2023-02-23T14:32:13.119Z,2.77
2023-02-23T14:34:47.292Z,3.33
2023-02-23T14:37:18.076Z,4.53
2023-02-23T14:39:44.812Z,5.37
2023-02-23T14:42:20.427Z,4.53
2023-02-23T14:44:51.347Z,4.60
2023-02-23T14:47:22.292Z,4.43
2023-02-23T14:49:57.187Z,4.07
2023-02-23T14:52:26.295Z,4.53
2023-02-23T14:55:04.164Z,4.17
2023-02-23T14:57:30.555Z,4.00
2023-02-23T15:00:00.991Z,3.17
2023-02-23T15:02:28.506Z,2.87
2023-02-23T15:04:55.302Z,2.93
2023-02-23T15:07:31.467Z,3.20
2023-02-23T15:09:58.782Z,2.90
2023-02-23T15:12:28.351Z,2.33
2023-02-23T15:15:00.058Z,3.33
2023-02-23T15:17:30.658Z,1.90
2023-02-23T15:20:16.293Z,2.50
2023-02-23T15:22:46.763Z,2.33
2023-02-23T15:25:27.941Z,3.70
2023-02-23T15:27:55.975Z,2.07
2023-02-23T15:30:33.006Z,2.57
2023-02-23T15:33:02.539Z,3.57
2023-02-23T15:35:30.130Z,2.47
2023-02-23T15:38:11.103Z,3.43
2023-02-23T15:40:44.405Z,3.40
2023-02-23T15:43:11.617Z,2.17
2023-02-23T15:45:46.623Z,3.23
2023-02-23T15:48:18.514Z,2.93
2023-02-23T15:50:50.126Z,2.90
2023-02-23T15:53:27.416Z,3.20
2023-02-23T15:55:55.329Z,2.50
2023-02-23T15:58:24.239Z,2.63
2023-02-23T16:00:54.734Z,2.70
2023-02-23T16:03:31.752Z,2.97
2023-02-23T16:06:03.404Z,3.73
2023-02-23T16:08:30.290Z,3.10
2023-02-23T16:11:22.908Z,2.93
2023-02-23T16:13:50.523Z,2.80
2023-02-23T16:16:20.207Z,3.63
2023-02-23T16:18:50.960Z,3.50
2023-02-23T16:21:21.454Z,3.57
2023-02-23T16:23:49.362Z,3.70
2023-02-23T16:26:15.686Z,3.33
2023-02-23T16:28:43.386Z,3.07
2023-02-23T16:31:13.851Z,3.63
2023-02-23T16:33:52.118Z,2.97
2023-02-23T16:36:22.298Z,3.50
2023-02-23T16:38:52.862Z,4.10
2023-02-23T16:41:20.451Z,3.37
2023-02-23T16:43:50.413Z,2.77
2023-02-23T16:46:17.474Z,3.43
2023-02-23T16:48:44.353Z,3.30
2023-02-23T16:51:14.099Z,3.57
2023-02-23T16:53:40.945Z,2.90
2023-02-23T16:56:12.454Z,3.10
2023-02-23T16:58:43.996Z,3.40
2023-02-23T17:01:18.041Z,2.80
2023-02-23T17:03:52.686Z,2.93
2023-02-23T17:06:19.944Z,3.00
2023-02-23T17:08:56.219Z,3.33
2023-02-23T17:11:24.340Z,2.47
2023-02-23T17:13:52.747Z,2.67
2023-02-23T17:16:19.682Z,3.07
2023-02-23T17:18:46.340Z,2.37
2023-02-23T17:21:13.510Z,2.83
2023-02-23T17:23:48.190Z,2.50
2023-02-23T17:26:14.997Z,2.63
2023-02-23T17:28:41.405Z,2.23
2023-02-23T17:31:08.270Z,2.53
2023-02-23T17:33:36.463Z,2.37
2023-02-23T17:36:04.459Z,3.57
2023-02-23T17:38:34.486Z,2.50
2023-02-23T17:41:12.095Z,2.57
2023-02-23T17:43:38.525Z,2.37
2023-02-23T17:46:05.063Z,2.10
2023-02-23T17:48:34.668Z,2.17
2023-02-23T17:51:05.351Z,2.23
2023-02-23T17:53:32.162Z,2.03
2023-02-23T17:55:59.554Z,1.93
2023-02-23T17:58:26.332Z,2.03
2023-02-23T18:00:57.561Z,2.10
2023-02-23T18:03:24.618Z,1.87
2023-02-23T18:05:52.784Z,1.97
2023-02-23T18:08:20.156Z,1.67
2023-02-23T18:10:53.457Z,1.93
2023-02-23T18:13:19.848Z,1.97
2023-02-23T18:15:53.724Z,2.03
2023-02-23T18:18:21.020Z,1.83
2023-02-23T18:21:09.519Z,1.80
2023-02-23T18:23:35.976Z,1.40
2023-02-23T18:26:07.488Z,2.20
2023-02-23T18:28:34.710Z,1.47
2023-02-23T18:31:01.991Z,2.20
2023-02-23T18:33:28.394Z,2.00
2023-02-23T18:35:54.727Z,1.80
2023-02-23T18:38:21.102Z,1.80
2023-02-23T18:40:47.775Z,2.80
2023-02-23T18:43:14.389Z,1.83
2023-02-23T18:45:40.894Z,1.60
2023-02-23T18:48:13.463Z,1.83
2023-02-23T18:50:40.183Z,1.40
2023-02-23T18:53:08.921Z,1.60
2023-02-23T18:55:36.381Z,1.97
2023-02-23T18:58:03.276Z,2.53
2023-02-23T19:00:33.689Z,2.17
2023-02-23T19:03:00.049Z,1.57
2023-02-23T19:05:26.559Z,1.83
2023-02-23T19:07:54.592Z,1.63
2023-02-23T19:10:21.014Z,1.63
2023-02-23T19:12:47.366Z,2.00
2023-02-23T19:15:13.839Z,2.13
2023-02-23T19:17:40.510Z,2.30
2023-02-23T19:20:13.729Z,1.43
2023-02-23T19:22:41.014Z,1.47
2023-02-23T19:25:11.734Z,1.80
2023-02-23T19:27:39.841Z,1.60
2023-02-23T19:30:09.803Z,1.90
2023-02-23T19:32:40.029Z,1.67
2023-02-23T19:35:08.508Z,2.03
2023-02-23T19:37:34.906Z,2.20
2023-02-23T19:40:03.592Z,2.20
2023-02-23T19:42:32.541Z,1.97
2023-02-23T19:44:59.583Z,2.30
2023-02-23T19:47:25.893Z,3.00
2023-02-23T19:49:52.295Z,2.57
2023-02-23T19:52:18.561Z,2.53
2023-02-23T19:54:45.164Z,2.63
2023-02-23T19:57:11.506Z,2.13
2023-02-23T19:59:38.046Z,2.03
2023-02-23T20:02:04.381Z,2.13
2023-02-23T20:04:32.835Z,2.00
2023-02-23T20:06:59.209Z,1.53
2023-02-23T20:09:25.545Z,1.60
2023-02-23T20:11:55.484Z,1.60
2023-02-23T20:14:23.730Z,2.47
2023-02-23T20:16:50.131Z,2.07
2023-02-23T20:19:17.459Z,2.07
2023-02-23T20:21:45.932Z,1.60
2023-02-23T20:24:12.934Z,1.97
2023-02-23T20:26:39.306Z,2.33
2023-02-23T20:29:10.855Z,1.73
2023-02-23T20:31:38.385Z,2.47
2023-02-23T20:34:06.132Z,2.20
2023-02-23T20:36:32.486Z,2.17
2023-02-23T20:38:58.912Z,1.67
2023-02-23T20:41:28.012Z,1.83
2023-02-23T20:43:54.854Z,3.63
2023-02-23T20:46:21.226Z,4.00
2023-02-23T20:48:49.085Z,3.70
2023-02-23T20:51:18.844Z,3.03
2023-02-23T20:53:46.675Z,2.87
2023-02-23T20:56:14.172Z,3.27
2023-02-23T20:58:40.494Z,3.50
2023-02-23T21:01:23.149Z,2.50
2023-02-23T21:03:51.428Z,2.80
2023-02-23T21:06:19.903Z,1.93
2023-02-23T21:08:48.945Z,3.10
2023-02-23T21:11:19.787Z,2.67
2023-02-23T21:13:46.416Z,3.23
2023-02-23T21:16:14.752Z,3.00
2023-02-23T21:18:42.349Z,2.73
2023-02-23T21:21:13.852Z,3.23
2023-02-23T21:23:43.286Z,4.33
2023-02-23T21:26:21.497Z,3.20
2023-02-23T21:28:48.366Z,3.00
2023-02-23T21:31:15.045Z,3.23
2023-02-23T21:33:42.205Z,3.80
2023-02-23T21:36:12.484Z,3.63
2023-02-23T21:38:40.115Z,3.80
2023-02-23T21:41:06.888Z,3.87
2023-02-23T21:43:36.856Z,3.60
2023-02-23T21:46:22.925Z,3.57
2023-02-23T21:48:49.360Z,3.60
2023-02-23T21:51:16.093Z,4.20
2023-02-23T21:53:43.152Z,3.47
2023-02-23T21:56:11.849Z,3.80
2023-02-23T21:58:39.348Z,3.13
2023-02-23T22:01:16.158Z,2.10
2023-02-23T22:03:45.103Z,2.07
2023-02-23T22:06:15.533Z,1.90
2023-02-23T22:08:50.221Z,2.23
2023-02-23T22:11:21.852Z,1.57
2023-02-23T22:13:49.664Z,1.23
2023-02-23T22:16:17.748Z,0.97
2023-02-23T22:18:44.251Z,1.50
2023-02-23T22:21:13.542Z,1.43
2023-02-23T22:23:40.429Z,1.80
2023-02-23T22:26:07.990Z,0.83
2023-02-23T22:28:34.380Z,0.93
2023-02-23T22:31:07.425Z,1.43
2023-02-23T22:33:34.355Z,1.70
2023-02-23T22:36:01.681Z,1.17
2023-02-23T22:38:28.071Z,1.13
2023-02-23T22:40:55.261Z,1.07
2023-02-23T22:43:22.082Z,1.70
2023-02-23T22:45:53.105Z,1.17
2023-02-23T22:48:19.400Z,1.53
2023-02-23T22:50:45.685Z,0.83
2023-02-23T22:53:12.007Z,1.30
2023-02-23T22:55:38.324Z,0.97
2023-02-23T22:58:08.382Z,1.03
2023-02-23T23:00:34.974Z,1.00
2023-02-23T23:03:05.573Z,1.10
2023-02-23T23:05:32.825Z,1.50
2023-02-23T23:07:59.502Z,1.10
2023-02-23T23:10:25.908Z,1.47
2023-02-23T23:12:52.285Z,1.97
2023-02-23T23:15:19.970Z,2.00
2023-02-23T23:17:48.344Z,2.40
2023-02-23T23:20:16.342Z,1.77
2023-02-23T23:22:42.676Z,1.10
2023-02-23T23:25:14.585Z,1.23
2023-02-23T23:27:41.887Z,0.90
2023-02-23T23:30:12.343Z,1.27
2023-02-23T23:32:42.133Z,1.33
2023-02-23T23:35:11.130Z,0.90
2023-02-23T23:37:39.811Z,1.07
2023-02-23T23:40:14.092Z,0.90
2023-02-23T23:42:42.213Z,1.10
2023-02-23T23:45:09.695Z,0.90
2023-02-23T23:47:36.091Z,1.10
2023-02-23T23:50:02.976Z,1.10
2023-02-23T23:52:31.104Z,1.07
2023-02-23T23:54:58.805Z,0.90
2023-02-23T23:57:26.002Z,1.07
2023-02-23T23:59:52.335Z,1.07
